createdAt,value
2023-04-12T00:00:30.692Z,76.58
2023-04-12T00:01:30.667Z,76.78
2023-04-12T00:02:30.777Z,76.68
2023-04-12T00:03:30.820Z,76.48
2023-04-12T00:04:30.857Z,76.68
2023-04-12T00:05:30.632Z,76.78
2023-04-12T00:06:30.601Z,76.68
2023-04-12T00:07:30.590Z,76.48
2023-04-12T00:08:30.629Z,76.48
2023-04-12T00:09:30.588Z,76.27
2023-04-12T00:10:30.551Z,76.27
2023-04-12T00:11:30.536Z,76.07
2023-04-12T00:12:30.575Z,76.07
2023-04-12T00:13:30.541Z,76.17
2023-04-12T00:14:30.559Z,76.58
2023-04-12T00:15:30.489Z,76.48
2023-04-12T00:16:30.616Z,76.68
2023-04-12T00:17:30.537Z,76.89
2023-04-12T00:18:30.483Z,76.78
2023-04-12T00:19:30.476Z,76.58
2023-04-12T00:20:30.453Z,76.68
2023-04-12T00:21:30.440Z,76.78
2023-04-12T00:22:30.444Z,76.89
2023-04-12T00:23:30.406Z,76.99
2023-04-12T00:24:30.393Z,76.89
2023-04-12T00:25:30.387Z,76.58
2023-04-12T00:26:30.395Z,76.89
2023-04-12T00:27:30.363Z,76.78
2023-04-12T00:28:30.384Z,76.89
2023-04-12T00:29:30.335Z,77.09
2023-04-12T00:30:30.331Z,77.20
2023-04-12T00:31:30.337Z,76.99
2023-04-12T00:32:30.348Z,76.78
2023-04-12T00:33:30.290Z,76.99
2023-04-12T00:34:30.302Z,77.09
2023-04-12T00:35:30.300Z,77.20
2023-04-12T00:36:30.260Z,77.40
2023-04-12T00:37:30.244Z,77.71
2023-04-12T00:38:30.235Z,77.61
2023-04-12T00:39:30.226Z,77.71
2023-04-12T00:40:30.211Z,77.40
2023-04-12T00:41:30.219Z,77.29
2023-04-12T00:42:30.188Z,77.09
2023-04-12T00:43:30.173Z,77.20
2023-04-12T00:44:30.175Z,77.40
2023-04-12T00:45:30.155Z,77.40
2023-04-12T00:46:30.152Z,77.29
2023-04-12T00:47:30.205Z,77.20
2023-04-12T00:48:30.120Z,77.09
2023-04-12T00:49:30.102Z,76.99
2023-04-12T00:50:30.100Z,76.99
2023-04-12T00:51:30.082Z,77.20
2023-04-12T00:52:30.093Z,77.09
2023-04-12T00:53:30.081Z,76.68
2023-04-12T00:54:30.052Z,76.78
2023-04-12T00:55:30.042Z,76.89
2023-04-12T00:56:30.043Z,76.89
2023-04-12T00:57:30.051Z,76.89
2023-04-12T00:58:30.007Z,76.78
2023-04-12T00:59:30.010Z,76.68
2023-04-12T01:00:30.010Z,76.68
2023-04-12T01:01:29.968Z,76.37
2023-04-12T01:02:30.092Z,76.48
2023-04-12T01:03:30.149Z,76.58
2023-04-12T01:04:29.966Z,76.58
2023-04-12T01:05:29.922Z,76.48
2023-04-12T01:06:29.931Z,76.89
2023-04-12T01:07:29.919Z,76.68
2023-04-12T01:08:29.887Z,76.48
2023-04-12T01:09:29.874Z,76.58
2023-04-12T01:10:29.894Z,76.37
2023-04-12T01:11:29.852Z,76.27
2023-04-12T01:12:29.846Z,76.48
2023-04-12T01:13:29.832Z,76.27
2023-04-12T01:14:29.831Z,76.07
2023-04-12T01:15:29.814Z,76.17
2023-04-12T01:16:29.879Z,76.07
2023-04-12T01:17:29.833Z,76.07
2023-04-12T01:18:29.778Z,75.86
2023-04-12T01:19:29.774Z,75.86
2023-04-12T01:20:29.755Z,75.76
2023-04-12T01:21:29.741Z,75.86
2023-04-12T01:22:29.757Z,75.86
2023-04-12T01:23:29.711Z,76.17
2023-04-12T01:24:29.711Z,76.27
2023-04-12T01:25:29.692Z,76.17
2023-04-12T01:26:29.731Z,75.86
2023-04-12T01:27:29.670Z,75.96
2023-04-12T01:28:29.683Z,76.07
2023-04-12T01:29:29.649Z,76.27
2023-04-12T01:30:29.647Z,75.62
2023-04-12T01:31:29.680Z,75.45
2023-04-12T01:32:29.641Z,75.66
2023-04-12T01:33:29.626Z,75.45
2023-04-12T01:34:29.594Z,75.35
2023-04-12T01:35:29.596Z,75.42
2023-04-12T01:36:29.580Z,75.52
2023-04-12T01:37:29.583Z,75.42
2023-04-12T01:38:29.580Z,75.52
2023-04-12T01:39:29.544Z,75.31
2023-04-12T01:40:29.527Z,75.11
2023-04-12T01:41:29.510Z,75.42
2023-04-12T01:42:29.507Z,75.52
2023-04-12T01:43:29.509Z,75.66
2023-04-12T01:44:29.478Z,75.45
2023-04-12T01:45:29.489Z,75.52
2023-04-12T01:46:29.465Z,75.52
2023-04-12T01:47:29.511Z,75.62
2023-04-12T01:48:29.466Z,75.73
2023-04-12T01:49:29.420Z,75.73
2023-04-12T01:50:29.414Z,75.86
2023-04-12T01:51:29.401Z,75.52
2023-04-12T01:52:29.388Z,75.42
2023-04-12T01:53:29.436Z,75.21
2023-04-12T01:54:29.369Z,75.42
2023-04-12T01:55:29.361Z,75.42
2023-04-12T01:56:29.342Z,75.62
2023-04-12T01:57:29.330Z,75.62
2023-04-12T01:58:29.347Z,75.31
2023-04-12T01:59:29.336Z,75.42
2023-04-12T02:00:29.306Z,75.82
2023-04-12T02:01:29.480Z,75.73
2023-04-12T02:02:29.444Z,75.52
2023-04-12T02:03:29.394Z,75.62
2023-04-12T02:04:29.262Z,75.62
2023-04-12T02:05:29.285Z,75.73
2023-04-12T02:06:29.235Z,75.73
2023-04-12T02:07:29.222Z,75.73
2023-04-12T02:08:29.208Z,75.73
2023-04-12T02:09:29.192Z,75.93
2023-04-12T02:10:29.187Z,75.73
2023-04-12T02:11:29.201Z,75.73
2023-04-12T02:12:29.163Z,75.82
2023-04-12T02:13:29.178Z,75.62
2023-04-12T02:14:29.137Z,75.82
2023-04-12T02:15:29.165Z,75.93
2023-04-12T02:16:29.540Z,76.14
2023-04-12T02:17:29.142Z,76.03
2023-04-12T02:18:29.099Z,76.34
2023-04-12T02:19:29.076Z,76.34
2023-04-12T02:20:29.068Z,76.44
2023-04-12T02:21:29.054Z,76.44
2023-04-12T02:22:29.071Z,76.54
2023-04-12T02:23:29.055Z,76.24
2023-04-12T02:24:29.033Z,76.44
2023-04-12T02:25:29.009Z,76.44
2023-04-12T02:26:29.011Z,76.44
2023-04-12T02:27:29.026Z,76.34
2023-04-12T02:28:28.981Z,76.44
2023-04-12T02:29:28.972Z,76.24
2023-04-12T02:30:29.008Z,76.34
2023-04-12T02:31:28.944Z,76.54
2023-04-12T02:32:28.987Z,76.95
2023-04-12T02:33:28.945Z,77.26
2023-04-12T02:34:28.939Z,77.36
2023-04-12T02:35:28.988Z,77.47
2023-04-12T02:36:28.883Z,77.36
2023-04-12T02:37:28.873Z,77.26
2023-04-12T02:38:28.875Z,77.36
2023-04-12T02:39:28.851Z,77.57
2023-04-12T02:40:28.869Z,77.67
2023-04-12T02:41:28.830Z,78.39
2023-04-12T02:42:28.823Z,78.59
2023-04-12T02:43:28.814Z,78.70
2023-04-12T02:44:28.820Z,78.80
2023-04-12T02:45:28.791Z,79.31
2023-04-12T02:46:28.913Z,79.41
2023-04-12T02:47:28.819Z,79.72
2023-04-12T02:48:28.753Z,79.93
2023-04-12T02:49:28.764Z,79.75
2023-04-12T02:50:28.783Z,79.62
2023-04-12T02:51:28.719Z,80.07
2023-04-12T02:52:28.741Z,80.27
2023-04-12T02:53:28.696Z,80.68
2023-04-12T02:54:28.697Z,80.68
2023-04-12T02:55:28.669Z,80.58
2023-04-12T02:56:28.655Z,80.68
2023-04-12T02:57:28.662Z,80.99
2023-04-12T02:58:28.657Z,80.78
2023-04-12T02:59:28.638Z,81.20
2023-04-12T03:00:28.611Z,81.71
2023-04-12T03:01:28.654Z,81.60
2023-04-12T03:02:28.667Z,81.60
2023-04-12T03:03:28.814Z,81.60
2023-04-12T03:04:28.805Z,81.20
2023-04-12T03:05:28.563Z,81.40
2023-04-12T03:06:28.549Z,81.60
2023-04-12T03:07:28.540Z,81.50
2023-04-12T03:08:28.552Z,81.40
2023-04-12T03:09:28.520Z,80.64
2023-04-12T03:10:28.495Z,80.68
2023-04-12T03:11:28.495Z,80.78
2023-04-12T03:12:28.505Z,80.78
2023-04-12T03:13:28.471Z,80.88
2023-04-12T03:14:28.459Z,80.88
2023-04-12T03:15:28.505Z,80.99
2023-04-12T03:16:28.434Z,81.29
2023-04-12T03:17:28.438Z,81.40
2023-04-12T03:18:28.436Z,81.40
2023-04-12T03:19:28.402Z,80.99
2023-04-12T03:20:28.412Z,80.88
2023-04-12T03:21:28.392Z,80.99
2023-04-12T03:22:28.358Z,81.09
2023-04-12T03:23:28.388Z,81.29
2023-04-12T03:24:28.347Z,81.20
2023-04-12T03:25:28.339Z,81.05
2023-04-12T03:26:28.350Z,81.05
2023-04-12T03:27:28.314Z,81.15
2023-04-12T03:28:28.298Z,81.05
2023-04-12T03:29:28.286Z,81.05
2023-04-12T03:30:28.277Z,81.15
2023-04-12T03:31:28.366Z,81.05
2023-04-12T03:32:28.309Z,81.05
2023-04-12T03:33:28.246Z,81.05
2023-04-12T03:34:28.230Z,81.05
2023-04-12T03:35:28.232Z,81.26
2023-04-12T03:36:28.235Z,81.40
2023-04-12T03:37:28.247Z,81.71
2023-04-12T03:38:28.188Z,81.71
2023-04-12T03:39:28.175Z,81.81
2023-04-12T03:40:28.156Z,81.81
2023-04-12T03:41:28.185Z,81.81
2023-04-12T03:42:33.394Z,81.87
2023-04-12T03:43:28.129Z,81.87
2023-04-12T03:44:28.114Z,82.08
2023-04-12T03:45:28.105Z,82.18
2023-04-12T03:46:28.125Z,82.12
2023-04-12T03:47:28.168Z,82.01
2023-04-12T03:48:28.069Z,82.12
2023-04-12T03:49:28.061Z,81.91
2023-04-12T03:50:28.045Z,82.01
2023-04-12T03:51:28.040Z,82.32
2023-04-12T03:52:28.034Z,82.32
2023-04-12T03:53:28.055Z,82.32
2023-04-12T03:54:28.007Z,82.22
2023-04-12T03:55:28.028Z,82.32
2023-04-12T03:56:27.973Z,82.32
2023-04-12T03:57:27.976Z,82.42
2023-04-12T03:58:27.976Z,82.32
2023-04-12T03:59:27.976Z,82.53
2023-04-12T04:00:27.935Z,82.53
2023-04-12T04:01:27.921Z,82.73
2023-04-12T04:02:28.251Z,82.93
2023-04-12T04:03:27.964Z,82.83
2023-04-12T04:04:28.002Z,82.83
2023-04-12T04:05:27.881Z,82.63
2023-04-12T04:06:27.877Z,82.83
2023-04-12T04:07:27.857Z,82.87
2023-04-12T04:08:27.857Z,83.07
2023-04-12T04:09:27.853Z,83.07
2023-04-12T04:10:27.820Z,83.04
2023-04-12T04:11:27.808Z,83.04
2023-04-12T04:12:27.802Z,83.04
2023-04-12T04:13:27.791Z,83.18
2023-04-12T04:14:27.818Z,83.28
2023-04-12T04:15:27.763Z,83.49
2023-04-12T04:16:27.823Z,83.39
2023-04-12T04:17:27.765Z,83.39
2023-04-12T04:18:27.730Z,83.45
2023-04-12T04:19:27.724Z,83.45
2023-04-12T04:20:27.938Z,83.34
2023-04-12T04:21:27.711Z,83.55
2023-04-12T04:22:27.698Z,83.55
2023-04-12T04:23:27.690Z,83.55
2023-04-12T04:24:27.705Z,83.65
2023-04-12T04:25:27.686Z,83.65
2023-04-12T04:26:27.640Z,83.55
2023-04-12T04:27:27.636Z,83.65
2023-04-12T04:28:27.635Z,83.96
2023-04-12T04:29:27.614Z,83.86
2023-04-12T04:30:27.619Z,83.96
2023-04-12T04:31:27.645Z,84.06
2023-04-12T04:32:27.647Z,84.06
2023-04-12T04:33:27.564Z,84.06
2023-04-12T04:34:27.563Z,84.17
2023-04-12T04:35:27.596Z,84.17
2023-04-12T04:36:27.562Z,84.17
2023-04-12T04:37:27.525Z,84.37
2023-04-12T04:38:27.515Z,84.27
2023-04-12T04:39:27.560Z,84.27
2023-04-12T04:40:27.484Z,84.37
2023-04-12T04:41:27.496Z,84.27
2023-04-12T04:42:27.468Z,84.17
2023-04-12T04:43:27.452Z,84.47
2023-04-12T04:44:27.435Z,84.47
2023-04-12T04:45:27.455Z,84.58
2023-04-12T04:46:27.418Z,84.68
2023-04-12T04:47:27.444Z,84.68
2023-04-12T04:48:27.394Z,84.58
2023-04-12T04:49:27.392Z,84.68
2023-04-12T04:50:27.369Z,84.78
2023-04-12T04:51:27.377Z,84.78
2023-04-12T04:52:27.369Z,84.68
2023-04-12T04:53:27.336Z,84.68
2023-04-12T04:54:27.329Z,84.78
2023-04-12T04:55:27.316Z,84.68
2023-04-12T04:56:27.300Z,84.68
2023-04-12T04:57:27.318Z,84.68
2023-04-12T04:58:27.282Z,84.58
2023-04-12T04:59:27.326Z,84.78
2023-04-12T05:00:27.259Z,84.47
2023-04-12T05:01:27.342Z,84.58
2023-04-12T05:02:27.334Z,84.78
2023-04-12T05:03:30.107Z,84.58
2023-04-12T05:04:27.359Z,84.68
2023-04-12T05:05:27.280Z,84.78
2023-04-12T05:06:27.186Z,84.99
2023-04-12T05:07:27.211Z,85.19
2023-04-12T05:08:27.188Z,85.30
2023-04-12T05:09:27.183Z,85.30
2023-04-12T05:10:27.255Z,85.39
2023-04-12T05:11:27.261Z,85.50
2023-04-12T05:12:27.137Z,85.71
2023-04-12T05:13:27.342Z,85.60
2023-04-12T05:14:41.281Z,85.50
2023-04-12T05:15:27.214Z,85.71
2023-04-12T05:16:27.140Z,85.80
2023-04-12T05:17:27.095Z,85.80
2023-04-12T05:18:27.146Z,85.80
2023-04-12T05:19:27.110Z,86.01
2023-04-12T05:20:27.069Z,85.80
2023-04-12T05:21:27.088Z,86.01
2023-04-12T05:22:27.017Z,85.80
2023-04-12T05:23:27.025Z,86.11
2023-04-12T05:24:27.020Z,86.01
2023-04-12T05:25:27.064Z,85.91
2023-04-12T05:26:27.100Z,85.80
2023-04-12T05:27:27.005Z,85.80
2023-04-12T05:28:27.007Z,85.80
2023-04-12T05:29:26.960Z,85.80
2023-04-12T05:30:26.927Z,85.71
2023-04-12T05:31:27.058Z,85.71
2023-04-12T05:32:27.092Z,85.71
2023-04-12T05:33:26.908Z,85.50
2023-04-12T05:34:26.994Z,85.80
2023-04-12T05:35:26.974Z,85.71
2023-04-12T05:36:26.888Z,85.71
2023-04-12T05:37:27.000Z,85.56
2023-04-12T05:38:26.858Z,85.77
2023-04-12T05:40:24.323Z,85.36
2023-04-12T05:41:25.298Z,85.36
2023-04-12T05:42:25.348Z,85.56
2023-04-12T05:43:25.334Z,85.56
2023-04-12T05:44:25.316Z,85.46
2023-04-12T05:45:25.339Z,85.36
2023-04-12T05:46:25.314Z,85.25
2023-04-12T05:47:25.476Z,85.46
2023-04-12T05:48:25.447Z,85.56
2023-04-12T05:49:25.202Z,85.56
2023-04-12T05:50:25.288Z,85.56
2023-04-12T05:51:34.046Z,85.56
2023-04-12T05:52:25.333Z,85.36
2023-04-12T05:53:25.313Z,85.25
2023-04-12T05:54:25.262Z,85.36
2023-04-12T05:55:25.141Z,85.46
2023-04-12T05:56:25.123Z,85.77
2023-04-12T05:57:25.176Z,86.28
2023-04-12T05:58:25.118Z,86.58
2023-04-12T05:59:25.084Z,86.48
2023-04-12T06:00:25.091Z,86.55
2023-04-12T06:01:25.077Z,87.10
2023-04-12T06:02:25.211Z,87.51
2023-04-12T06:03:25.149Z,87.41
2023-04-12T06:04:32.066Z,87.71
2023-04-12T06:05:25.047Z,88.02
2023-04-12T06:06:25.012Z,88.33
2023-04-12T06:07:25.012Z,90.17
2023-04-12T06:08:25.008Z,91.09
2023-04-12T06:09:24.974Z,92.49
2023-04-12T06:10:24.974Z,91.93
2023-04-12T06:11:24.956Z,89.78
2023-04-12T06:12:24.976Z,89.89
2023-04-12T06:13:24.985Z,89.53
2023-04-12T06:14:24.960Z,88.71
2023-04-12T06:15:24.915Z,87.49
2023-04-12T06:16:24.942Z,87.08
2023-04-12T06:17:24.919Z,87.79
2023-04-12T06:18:24.875Z,88.45
2023-04-12T06:19:24.884Z,89.06
2023-04-12T06:20:24.886Z,89.37
2023-04-12T06:21:24.852Z,90.13
2023-04-12T06:22:24.835Z,90.75
2023-04-12T06:23:24.826Z,91.30
2023-04-12T06:24:24.849Z,91.50
2023-04-12T06:25:24.805Z,92.27
2023-04-12T06:26:25.124Z,92.36
2023-04-12T06:27:24.796Z,93.08
2023-04-12T06:28:24.841Z,93.64
2023-04-12T06:29:24.795Z,93.95
2023-04-12T06:30:24.764Z,94.15
2023-04-12T06:31:24.820Z,94.56
2023-04-12T06:32:24.745Z,94.67
2023-04-12T06:33:24.730Z,94.98
2023-04-12T06:34:24.936Z,95.18
2023-04-12T06:35:24.686Z,95.74
2023-04-12T06:36:24.844Z,95.84
2023-04-12T06:37:24.673Z,95.53
2023-04-12T06:38:24.670Z,96.15
2023-04-12T06:39:24.647Z,96.35
2023-04-12T06:40:24.649Z,96.77
2023-04-12T06:41:24.613Z,96.97
2023-04-12T06:42:24.619Z,97.17
2023-04-12T06:43:24.590Z,97.28
2023-04-12T06:44:24.605Z,97.38
2023-04-12T06:45:24.586Z,97.28
2023-04-12T06:46:24.571Z,97.28
2023-04-12T06:47:24.594Z,97.48
2023-04-12T06:48:24.562Z,97.38
2023-04-12T06:49:24.528Z,97.69
2023-04-12T06:50:24.534Z,97.89
2023-04-12T06:51:24.497Z,97.99
2023-04-12T06:52:24.494Z,97.89
2023-04-12T06:53:24.475Z,97.89
2023-04-12T06:54:24.479Z,98.05
2023-04-12T06:55:24.494Z,98.16
2023-04-12T06:56:24.440Z,98.16
2023-04-12T06:57:24.478Z,98.16
2023-04-12T06:58:24.424Z,98.25
2023-04-12T06:59:24.414Z,98.36
2023-04-12T07:00:24.403Z,98.16
2023-04-12T07:01:24.476Z,97.85
2023-04-12T07:02:24.497Z,97.64
2023-04-12T07:03:24.640Z,97.74
2023-04-12T07:04:24.421Z,97.54
2023-04-12T07:05:24.345Z,97.54
2023-04-12T07:06:26.090Z,97.54
2023-04-12T07:07:24.357Z,97.54
2023-04-12T07:08:24.315Z,97.64
2023-04-12T07:09:24.303Z,97.85
2023-04-12T07:10:24.309Z,97.64
2023-04-12T07:11:24.306Z,97.74
2023-04-12T07:12:24.292Z,98.16
2023-04-12T07:13:24.267Z,97.64
2023-04-12T07:14:24.247Z,97.44
2023-04-12T07:15:24.241Z,97.33
2023-04-12T07:16:24.263Z,97.33
2023-04-12T07:17:24.226Z,97.54
2023-04-12T07:18:24.245Z,97.64
2023-04-12T07:19:24.204Z,97.64
2023-04-12T07:20:24.178Z,97.74
2023-04-12T07:21:24.171Z,97.70
2023-04-12T07:22:24.162Z,97.80
2023-04-12T07:23:24.152Z,97.29
2023-04-12T07:24:24.185Z,96.98
2023-04-12T07:25:24.128Z,97.08
2023-04-12T07:26:24.119Z,97.29
2023-04-12T07:27:24.113Z,97.39
2023-04-12T07:28:24.107Z,97.19
2023-04-12T07:29:24.111Z,97.29
2023-04-12T07:30:24.097Z,97.19
2023-04-12T07:31:24.067Z,96.98
2023-04-12T07:32:24.127Z,96.98
2023-04-12T07:33:24.178Z,97.29
2023-04-12T07:34:24.383Z,96.88
2023-04-12T07:35:24.005Z,96.63
2023-04-12T07:36:24.037Z,96.63
2023-04-12T07:37:24.030Z,96.22
2023-04-12T07:38:23.977Z,96.12
2023-04-12T07:39:24.019Z,95.91
2023-04-12T07:40:23.965Z,96.53
2023-04-12T07:41:23.944Z,96.53
2023-04-12T07:42:23.928Z,96.53
2023-04-12T07:43:23.923Z,97.04
2023-04-12T07:44:23.913Z,97.04
2023-04-12T07:45:25.636Z,97.45
2023-04-12T07:46:24.003Z,97.14
2023-04-12T07:47:23.937Z,97.14
2023-04-12T07:48:23.876Z,97.08
2023-04-12T07:49:23.880Z,97.08
2023-04-12T07:50:23.903Z,97.49
2023-04-12T07:51:23.864Z,97.14
2023-04-12T07:52:23.831Z,97.14
2023-04-12T07:53:23.816Z,97.45
2023-04-12T07:54:23.838Z,97.45
2023-04-12T07:55:23.781Z,97.14
2023-04-12T07:56:23.804Z,96.83
2023-04-12T07:57:23.767Z,97.14
2023-04-12T07:58:23.791Z,97.45
2023-04-12T07:59:23.738Z,97.61
2023-04-12T08:00:23.760Z,97.24
2023-04-12T08:01:23.735Z,97.30
2023-04-12T08:02:23.738Z,97.50
2023-04-12T08:03:23.723Z,97.09
2023-04-12T08:04:23.748Z,97.20
2023-04-12T08:05:23.679Z,96.89
2023-04-12T08:06:23.686Z,96.58
2023-04-12T08:07:23.662Z,96.69
2023-04-12T08:08:23.649Z,96.48
2023-04-12T08:09:23.624Z,96.79
2023-04-12T08:10:23.632Z,96.95
2023-04-12T08:11:23.610Z,96.64
2023-04-12T08:12:23.627Z,96.74
2023-04-12T08:13:23.591Z,96.95
2023-04-12T08:14:23.584Z,96.95
2023-04-12T08:15:23.564Z,97.15
2023-04-12T08:16:23.575Z,96.64
2023-04-12T08:17:23.592Z,96.84
2023-04-12T08:18:23.543Z,97.21
2023-04-12T08:19:23.515Z,96.80
2023-04-12T08:20:23.508Z,97.00
2023-04-12T08:21:23.502Z,97.16
2023-04-12T08:22:23.496Z,97.16
2023-04-12T08:23:23.496Z,96.81
2023-04-12T08:24:23.464Z,96.61
2023-04-12T08:25:23.525Z,96.15
2023-04-12T08:26:23.447Z,95.44
2023-04-12T08:27:23.438Z,95.54
2023-04-12T08:28:23.429Z,95.95
2023-04-12T08:29:23.437Z,95.64
2023-04-12T08:30:23.410Z,95.60
2023-04-12T08:31:23.494Z,95.34
2023-04-12T08:32:23.402Z,94.82
2023-04-12T08:33:23.386Z,95.03
2023-04-12T08:34:23.362Z,95.85
2023-04-12T08:35:23.383Z,96.26
2023-04-12T08:36:23.336Z,95.89
2023-04-12T08:37:23.320Z,96.30
2023-04-12T08:38:37.261Z,96.14
2023-04-12T08:39:23.404Z,96.04
2023-04-12T08:40:23.304Z,96.14
2023-04-12T08:41:23.301Z,96.49
2023-04-12T08:42:23.263Z,96.70
2023-04-12T08:43:23.320Z,97.21
2023-04-12T08:44:23.295Z,97.41
2023-04-12T08:45:23.239Z,97.62
2023-04-12T08:46:23.325Z,97.62
2023-04-12T08:47:23.289Z,97.92
2023-04-12T08:48:23.198Z,98.03
2023-04-12T08:49:23.181Z,98.03
2023-04-12T08:50:23.192Z,98.07
2023-04-12T08:51:23.171Z,98.58
2023-04-12T08:52:23.157Z,99.10
2023-04-12T08:53:23.140Z,99.45
2023-04-12T08:54:23.142Z,99.55
2023-04-12T08:55:23.151Z,99.55
2023-04-12T08:56:23.120Z,99.86
2023-04-12T08:57:23.118Z,99.99
2023-04-12T08:58:23.106Z,99.99
2023-04-12T08:59:23.085Z,99.99
2023-04-12T09:00:23.096Z,99.99
2023-04-12T09:01:23.089Z,99.99
2023-04-12T09:02:23.259Z,99.99
2023-04-12T09:03:23.235Z,99.99
2023-04-12T09:04:23.118Z,99.99
2023-04-12T09:05:23.154Z,99.99
2023-04-12T09:06:23.127Z,99.99
2023-04-12T09:07:23.015Z,99.99
2023-04-12T09:08:22.997Z,99.99
2023-04-12T09:09:23.095Z,99.99
2023-04-12T09:10:23.119Z,99.99
2023-04-12T09:11:23.028Z,99.99
2023-04-12T09:12:22.993Z,99.99
2023-04-12T09:13:22.939Z,99.99
2023-04-12T09:14:23.010Z,99.99
2023-04-12T09:15:22.913Z,99.99
2023-04-12T09:16:22.988Z,99.99
2023-04-12T09:17:22.999Z,99.99
2023-04-12T09:18:22.902Z,99.99
2023-04-12T09:19:22.927Z,99.99
2023-04-12T09:20:23.012Z,99.99
2023-04-12T09:21:22.852Z,99.99
2023-04-12T09:22:22.842Z,99.99
2023-04-12T09:23:22.884Z,99.99
2023-04-12T09:24:22.945Z,99.99
2023-04-12T09:25:22.882Z,99.99
2023-04-12T09:26:22.779Z,99.99
2023-04-12T09:27:22.813Z,99.99
2023-04-12T09:28:22.776Z,99.99
2023-04-12T09:29:22.760Z,99.99
2023-04-12T09:30:22.815Z,99.99
2023-04-12T09:31:22.748Z,99.99
2023-04-12T09:32:22.754Z,99.99
2023-04-12T09:33:22.735Z,99.99
2023-04-12T09:34:22.706Z,99.99
2023-04-12T09:35:22.715Z,99.99
2023-04-12T09:36:22.739Z,99.99
2023-04-12T09:37:22.698Z,99.99
2023-04-12T09:38:22.656Z,99.99
2023-04-12T09:39:22.659Z,99.99
2023-04-12T09:40:22.648Z,99.99
2023-04-12T09:41:26.764Z,99.99
2023-04-12T09:42:33.265Z,99.99
2023-04-12T09:43:22.594Z,99.99
2023-04-12T09:44:22.609Z,99.99
2023-04-12T09:45:22.597Z,99.99
2023-04-12T09:46:22.674Z,99.99
2023-04-12T09:47:22.619Z,99.99
2023-04-12T09:48:22.530Z,99.99
2023-04-12T09:49:22.824Z,99.99
2023-04-12T09:50:22.532Z,99.99
2023-04-12T09:51:22.534Z,99.99
2023-04-12T09:52:22.505Z,99.99
2023-04-12T09:53:22.475Z,99.99
2023-04-12T09:54:22.476Z,99.99
2023-04-12T09:55:22.511Z,99.99
2023-04-12T09:56:22.444Z,99.99
2023-04-12T09:57:22.453Z,99.99
2023-04-12T09:58:22.420Z,99.99
2023-04-12T09:59:22.431Z,99.99
2023-04-12T10:00:22.424Z,99.99
2023-04-12T10:01:22.428Z,99.99
2023-04-12T10:02:22.493Z,99.99
2023-04-12T10:03:22.633Z,99.99
2023-04-12T10:04:22.592Z,99.99
2023-04-12T10:05:22.555Z,99.99
2023-04-12T10:06:22.330Z,99.99
2023-04-12T10:07:22.349Z,99.99
2023-04-12T10:08:22.303Z,99.99
2023-04-12T10:09:22.300Z,99.99
2023-04-12T10:10:22.318Z,99.99
2023-04-12T10:11:22.273Z,99.99
2023-04-12T10:12:22.291Z,99.99
2023-04-12T10:13:22.290Z,99.99
2023-04-12T10:14:22.249Z,99.99
2023-04-12T10:15:22.280Z,99.99
2023-04-12T10:16:22.297Z,99.99
2023-04-12T10:17:22.244Z,99.99
2023-04-12T10:18:22.229Z,99.99
2023-04-12T10:19:22.189Z,99.99
2023-04-12T10:20:23.037Z,99.99
2023-04-12T10:21:22.171Z,99.99
2023-04-12T10:22:22.183Z,99.99
2023-04-12T10:23:22.162Z,99.99
2023-04-12T10:24:22.135Z,99.99
2023-04-12T10:25:22.125Z,99.99
2023-04-12T10:26:22.129Z,99.99
2023-04-12T10:27:22.104Z,99.99
2023-04-12T10:28:22.085Z,99.99
2023-04-12T10:29:22.123Z,99.99
2023-04-12T10:30:22.112Z,99.99
2023-04-12T10:31:22.117Z,99.99
2023-04-12T10:32:22.141Z,99.99
2023-04-12T10:33:22.109Z,99.99
2023-04-12T10:34:22.040Z,99.99
2023-04-12T10:35:22.017Z,99.99
2023-04-12T10:36:22.069Z,99.99
2023-04-12T10:37:21.997Z,99.99
2023-04-12T10:38:22.001Z,99.99
2023-04-12T10:39:22.000Z,99.99
2023-04-12T10:40:21.960Z,99.99
2023-04-12T10:41:22.082Z,99.99
2023-04-12T10:42:21.968Z,99.99
2023-04-12T10:43:21.955Z,99.99
2023-04-12T10:44:21.922Z,99.99
2023-04-12T10:45:21.936Z,99.99
2023-04-12T10:46:21.950Z,99.99
2023-04-12T10:47:21.957Z,99.99
2023-04-12T10:48:21.939Z,99.99
2023-04-12T10:49:21.874Z,99.99
2023-04-12T10:50:21.858Z,99.99
2023-04-12T10:51:22.819Z,99.20
2023-04-12T10:52:21.846Z,98.79
2023-04-12T10:53:21.853Z,99.00
2023-04-12T10:54:21.828Z,99.61
2023-04-12T10:55:21.809Z,99.51
2023-04-12T10:56:21.832Z,99.86
2023-04-12T10:57:21.804Z,99.40
2023-04-12T10:58:21.787Z,99.80
2023-04-12T10:59:21.776Z,99.14
2023-04-12T11:00:21.802Z,99.29
2023-04-12T11:01:21.830Z,99.99
2023-04-12T11:02:21.954Z,99.99
2023-04-12T11:03:21.935Z,99.99
2023-04-12T11:04:22.179Z,99.99
2023-04-12T11:05:21.693Z,99.99
2023-04-12T11:06:27.602Z,99.99
2023-04-12T11:07:21.685Z,99.99
2023-04-12T11:08:21.648Z,99.99
2023-04-12T11:09:21.655Z,99.99
2023-04-12T11:10:21.750Z,99.99
2023-04-12T11:11:21.637Z,99.99
2023-04-12T11:12:21.646Z,99.99
2023-04-12T11:13:21.613Z,99.99
2023-04-12T11:14:21.611Z,99.99
2023-04-12T11:15:21.609Z,99.99
2023-04-12T11:16:21.646Z,99.99
2023-04-12T11:17:21.775Z,99.99
2023-04-12T11:18:21.586Z,99.99
2023-04-12T11:19:21.545Z,99.99
2023-04-12T11:20:21.821Z,99.99
2023-04-12T11:21:21.555Z,99.99
2023-04-12T11:22:21.591Z,99.99
2023-04-12T11:23:21.570Z,99.99
2023-04-12T11:24:21.629Z,99.99
2023-04-12T11:25:21.580Z,99.99
2023-04-12T11:26:21.469Z,99.99
2023-04-12T11:27:21.435Z,99.99
2023-04-12T11:28:28.645Z,99.99
2023-04-12T11:29:21.422Z,99.99
2023-04-12T11:30:21.427Z,99.99
2023-04-12T11:31:21.410Z,99.99
2023-04-12T11:32:21.722Z,99.99
2023-04-12T11:33:21.589Z,99.99
2023-04-12T11:34:21.361Z,99.99
2023-04-12T11:35:21.640Z,99.99
2023-04-12T11:36:21.589Z,99.99
2023-04-12T11:37:21.533Z,99.99
2023-04-12T11:38:21.543Z,99.99
2023-04-12T11:39:21.712Z,99.99
2023-04-12T11:40:21.611Z,99.99
2023-04-12T11:41:21.506Z,99.99
2023-04-12T11:42:21.283Z,99.99
2023-04-12T11:43:21.259Z,99.99
2023-04-12T11:44:21.251Z,99.99
2023-04-12T11:45:21.243Z,99.99
2023-04-12T11:46:21.356Z,99.99
2023-04-12T11:47:21.221Z,99.99
2023-04-12T11:48:21.210Z,99.99
2023-04-12T11:49:21.200Z,99.99
2023-04-12T11:50:21.187Z,99.99
2023-04-12T11:51:21.194Z,99.99
2023-04-12T11:52:21.158Z,99.99
2023-04-12T11:53:21.241Z,99.99
2023-04-12T11:54:21.143Z,99.99
2023-04-12T11:55:21.129Z,99.99
2023-04-12T11:56:21.140Z,99.99
2023-04-12T11:57:21.201Z,99.99
2023-04-12T11:58:21.095Z,99.99
2023-04-12T11:59:21.089Z,99.99
2023-04-12T12:00:21.073Z,99.99
2023-04-12T12:01:21.087Z,99.99
2023-04-12T12:02:23.450Z,99.99
2023-04-12T12:03:21.241Z,99.99
2023-04-12T12:04:21.201Z,99.99
2023-04-12T12:05:21.221Z,99.99
2023-04-12T12:06:21.144Z,99.99
2023-04-12T12:07:21.658Z,99.99
2023-04-12T12:08:21.002Z,99.99
2023-04-12T12:09:20.988Z,99.99
2023-04-12T12:10:32.574Z,99.99
2023-04-12T12:11:20.981Z,99.99
2023-04-12T12:12:20.962Z,99.99
2023-04-12T12:13:20.937Z,99.99
2023-04-12T12:14:20.916Z,99.99
2023-04-12T12:15:20.932Z,99.99
2023-04-12T12:16:20.925Z,99.99
2023-04-12T12:17:20.921Z,99.99
2023-04-12T12:18:20.896Z,99.99
2023-04-12T12:19:20.859Z,99.99
2023-04-12T12:20:20.857Z,99.99
2023-04-12T12:21:20.896Z,99.99
2023-04-12T12:22:20.846Z,99.99
2023-04-12T12:23:20.843Z,99.99
2023-04-12T12:24:20.808Z,99.99
2023-04-12T12:25:20.829Z,99.99
2023-04-12T12:26:20.787Z,99.99
2023-04-12T12:27:20.807Z,99.99
2023-04-12T12:28:20.868Z,99.99
2023-04-12T12:29:20.768Z,99.99
2023-04-12T12:30:20.762Z,99.99
2023-04-12T12:31:20.764Z,99.99
2023-04-12T12:32:20.731Z,99.99
2023-04-12T12:33:21.907Z,99.99
2023-04-12T12:34:20.729Z,99.99
2023-04-12T12:35:20.698Z,99.99
2023-04-12T12:36:20.806Z,99.99
2023-04-12T12:37:20.667Z,99.99
2023-04-12T12:38:20.656Z,99.99
2023-04-12T12:39:20.669Z,99.99
2023-04-12T12:40:20.657Z,99.99
2023-04-12T12:41:20.626Z,99.99
2023-04-12T12:42:20.668Z,99.99
2023-04-12T12:43:20.612Z,99.99
2023-04-12T12:44:20.612Z,99.99
2023-04-12T12:45:20.598Z,99.99
2023-04-12T12:46:20.648Z,99.99
2023-04-12T12:47:20.574Z,99.99
2023-04-12T12:48:20.593Z,99.99
2023-04-12T12:49:20.857Z,99.99
2023-04-12T12:50:22.625Z,99.99
2023-04-12T12:51:20.551Z,99.99
2023-04-12T12:52:20.505Z,99.99
2023-04-12T12:53:22.539Z,99.99